Time;durP1;ratioP1;P1;durP2;ratioP2;P2;SDS_P1;SDS_P2;PMS_P1;PMS_P2;Temp;Humidity;BMP_temperature;BMP_pressure;BME280_temperature;BME280_humidity;BME280_pressure;Samples;Min_cycle;Max_cycle;Signal;HPM_P1;HPM_P2
2022/08/20 00:02:11;;;;;;;14.00;10.55;;;21.50;99.90;;;;;;12487448;28;20099;-83
2022/08/20 00:08:14;;;;;;;14.20;10.88;;;21.40;99.90;;;;;;12480572;28;20045;-83
2022/08/20 00:14:16;;;;;;;14.70;11.00;;;21.40;99.90;;;;;;12466493;28;20037;-82
2022/08/20 00:20:21;;;;;;;13.45;9.93;;;21.40;99.90;;;;;;12452334;28;20109;-83
2022/08/20 00:26:23;;;;;;;13.15;11.07;;;21.30;99.90;;;;;;12482458;28;20050;-83
2022/08/20 00:32:26;;;;;;;17.60;11.40;;;21.30;99.90;;;;;;12470689;28;20054;-83
2022/08/20 00:38:28;;;;;;;14.35;11.43;;;21.30;99.90;;;;;;12480537;28;20312;-82
2022/08/20 00:44:30;;;;;;;14.95;11.23;;;21.40;99.90;;;;;;12479859;28;20050;-82
2022/08/20 00:50:36;;;;;;;14.57;10.98;;;21.40;99.90;;;;;;12468458;28;21257;-82
2022/08/20 00:56:38;;;;;;;15.00;11.48;;;21.50;99.90;;;;;;12447203;28;20041;-82
2022/08/20 01:02:41;;;;;;;14.85;10.00;;;21.60;99.90;;;;;;12479413;28;20068;-83
2022/08/20 01:08:43;;;;;;;16.30;11.97;;;21.60;99.90;;;;;;12461264;28;20057;-82
2022/08/20 01:14:46;;;;;;;16.38;11.68;;;21.50;99.90;;;;;;12463331;28;20069;-82
2022/08/20 01:20:50;;;;;;;15.90;11.85;;;21.50;99.90;;;;;;12465135;28;20562;-83
2022/08/20 01:26:54;;;;;;;14.48;11.25;;;21.30;99.90;;;;;;12455971;28;20490;-82
2022/08/20 01:32:56;;;;;;;16.92;12.23;;;21.30;99.90;;;;;;12388206;28;20100;-83
2022/08/20 01:38:59;;;;;;;17.50;11.68;;;21.20;99.90;;;;;;12382144;28;20134;-82
2022/08/20 01:45:02;;;;;;;21.63;13.38;;;21.10;99.90;;;;;;12390175;28;20050;-82
2022/08/20 01:51:19;;;;;;;16.52;12.95;;;21.10;99.90;;;;;;12389716;28;20505;-82
2022/08/20 01:57:25;;;;;;;16.70;12.88;;;20.90;99.90;;;;;;12399606;28;20055;-82
2022/08/20 02:03:28;;;;;;;18.08;11.38;;;21.00;99.90;;;;;;12404244;28;20179;-82
2022/08/20 02:09:38;;;;;;;17.98;12.45;;;20.90;99.90;;;;;;12413530;28;20131;-82
2022/08/20 02:15:41;;;;;;;15.45;12.15;;;21.00;99.90;;;;;;12393690;28;20145;-82
2022/08/20 02:21:48;;;;;;;17.85;11.93;;;21.00;99.90;;;;;;12411822;28;20085;-82
2022/08/20 02:27:51;;;;;;;20.02;12.55;;;20.80;99.90;;;;;;12390868;28;20049;-82
2022/08/20 02:33:53;;;;;;;18.60;13.55;;;20.80;99.90;;;;;;12482510;28;20088;-82
2022/08/20 02:40:19;;;;;;;18.77;11.80;;;20.70;99.90;;;;;;12471402;28;20069;-82
2022/08/20 02:46:32;;;;;;;16.02;12.20;;;20.90;99.90;;;;;;12462759;28;20178;-82
2022/08/20 02:52:34;;;;;;;17.98;12.55;;;21.10;99.90;;;;;;12468778;28;20136;-82
2022/08/20 02:58:37;;;;;;;17.73;13.30;;;21.10;99.90;;;;;;12475348;28;20049;-82
2022/08/20 03:04:41;;;;;;;22.95;13.82;;;21.20;99.90;;;;;;12463576;28;20057;-82
2022/08/20 03:10:45;;;;;;;20.42;15.77;;;21.10;99.90;;;;;;12467320;28;20053;-82
2022/08/20 03:16:47;;;;;;;19.98;14.80;;;21.10;99.90;;;;;;12485699;28;20021;-82
2022/08/20 03:22:49;;;;;;;15.38;13.73;;;20.90;99.90;;;;;;12487636;28;20479;-82
2022/08/20 03:28:51;;;;;;;17.70;13.75;;;20.80;99.90;;;;;;12481266;28;20065;-83
2022/08/20 03:34:53;;;;;;;18.58;14.68;;;20.90;99.90;;;;;;12461406;28;20429;-83
2022/08/20 03:40:56;;;;;;;21.60;15.50;;;20.80;99.90;;;;;;12480883;28;20045;-82
2022/08/20 03:46:58;;;;;;;20.97;16.20;;;20.70;99.90;;;;;;12468660;28;20053;-82
2022/08/20 03:53:02;;;;;;;21.75;16.70;;;20.60;99.90;;;;;;12463772;28;20054;-82
2022/08/20 03:59:04;;;;;;;19.25;15.23;;;20.70;99.90;;;;;;12471381;28;20050;-82
2022/08/20 04:05:07;;;;;;;20.02;15.73;;;20.70;99.90;;;;;;12474949;28;20050;-82
2022/08/20 04:11:09;;;;;;;18.20;14.90;;;20.60;99.90;;;;;;12479123;28;20056;-82
2022/08/20 04:17:12;;;;;;;21.08;15.90;;;20.60;99.90;;;;;;12485777;28;20417;-82
2022/08/20 04:23:14;;;;;;;21.83;17.20;;;20.60;99.90;;;;;;12504422;28;20045;-82
2022/08/20 04:29:17;;;;;;;22.60;17.58;;;20.40;99.90;;;;;;12493043;28;20054;-82
2022/08/20 04:35:19;;;;;;;24.48;18.27;;;20.60;99.90;;;;;;12481797;28;20090;-82
2022/08/20 04:41:22;;;;;;;24.63;18.13;;;20.50;99.90;;;;;;12475138;28;20409;-82
2022/08/20 04:47:25;;;;;;;22.08;17.00;;;20.50;99.90;;;;;;12460409;28;20549;-83
2022/08/20 04:53:35;;;;;;;22.35;18.23;;;20.40;99.90;;;;;;12482234;28;20124;-82
2022/08/20 04:59:39;;;;;;;23.38;18.30;;;20.50;99.90;;;;;;12465183;28;20057;-82
2022/08/20 05:05:41;;;;;;;24.80;17.40;;;20.50;99.90;;;;;;12469769;28;20056;-81
2022/08/20 05:11:43;;;;;;;22.40;18.33;;;20.50;99.90;;;;;;12490266;28;20042;-81
2022/08/20 05:17:46;;;;;;;23.88;18.15;;;20.50;99.90;;;;;;12477098;28;20046;-81
2022/08/20 05:23:48;;;;;;;24.97;19.63;;;20.50;99.90;;;;;;12469167;28;20050;-81
2022/08/20 05:29:52;;;;;;;26.52;19.48;;;20.30;99.90;;;;;;12484343;28;20056;-81
2022/08/20 05:35:56;;;;;;;26.17;21.40;;;20.20;99.90;;;;;;12483393;28;20405;-81
2022/08/20 05:41:59;;;;;;;27.80;20.60;;;20.20;99.90;;;;;;12462906;28;21215;-81
2022/08/20 05:48:06;;;;;;;28.98;21.58;;;20.30;99.90;;;;;;12481183;28;20184;-81
2022/08/20 05:54:09;;;;;;;27.48;20.77;;;19.90;99.90;;;;;;12463914;28;20042;-81
2022/08/20 06:00:13;;;;;;;25.75;20.30;;;19.90;99.90;;;;;;12462959;28;20056;-81
2022/08/20 06:06:15;;;;;;;26.80;20.30;;;20.00;99.90;;;;;;12482899;28;20041;-81
2022/08/20 06:12:37;;;;;;;31.15;23.42;;;19.80;99.90;;;;;;12472260;28;20048;-81
2022/08/20 06:18:39;;;;;;;30.80;23.65;;;19.60;99.90;;;;;;12485490;28;20056;-81
2022/08/20 06:24:43;;;;;;;28.65;21.27;;;19.60;99.90;;;;;;12471252;28;20049;-81
2022/08/20 06:30:45;;;;;;;31.63;23.20;;;19.70;99.90;;;;;;12490801;28;20056;-81
2022/08/20 06:36:47;;;;;;;31.30;24.10;;;19.70;99.90;;;;;;12482941;28;20080;-81
2022/08/20 06:42:51;;;;;;;25.65;20.20;;;19.30;99.90;;;;;;12488709;28;20072;-81
2022/08/20 06:48:53;;;;;;;24.48;19.70;;;19.60;99.90;;;;;;12489580;28;20038;-81
2022/08/20 06:54:55;;;;;;;21.27;17.92;;;19.70;99.90;;;;;;12466279;28;20616;-81
2022/08/20 07:00:58;;;;;;;20.90;18.30;;;19.90;99.90;;;;;;12472055;28;20559;-82
2022/08/20 07:07:16;;;;;;;23.10;17.20;;;19.90;99.90;;;;;;12472264;28;20049;-81
2022/08/20 07:13:18;;;;;;;19.42;14.48;;;19.90;99.90;;;;;;12470017;28;20447;-81
2022/08/20 07:19:24;;;;;;;10.00;8.40;;;19.80;99.90;;;;;;12486377;28;20479;-81
2022/08/20 07:25:27;;;;;;;7.97;5.97;;;19.80;99.90;;;;;;12464394;28;20045;-81
2022/08/20 07:37:53;;;;;;;9.18;7.50;;;20.00;99.90;;;;;;12457324;28;20405;-81
2022/08/20 07:43:55;;;;;;;9.00;7.43;;;20.00;99.90;;;;;;12451544;28;20050;-81
2022/08/20 07:49:57;;;;;;;10.25;8.18;;;20.00;99.90;;;;;;12434738;28;20136;-81
2022/08/20 07:56:02;;;;;;;9.75;7.47;;;20.00;99.90;;;;;;12445216;28;20429;-82
2022/08/20 08:02:10;;;;;;;9.98;8.02;;;20.10;99.90;;;;;;12458174;28;20103;-81
2022/08/20 08:08:16;;;;;;;12.48;7.95;;;20.10;99.90;;;;;;12455434;28;20097;-81
2022/08/20 08:14:23;;;;;;;14.93;7.55;;;20.00;99.90;;;;;;12437701;28;20193;-81
2022/08/20 08:20:26;;;;;;;8.55;7.03;;;20.10;99.90;;;;;;12465078;28;20046;-81
2022/08/20 08:26:29;;;;;;;8.25;6.28;;;20.00;99.90;;;;;;12428886;28;20200;-81
2022/08/20 08:32:31;;;;;;;8.73;7.82;;;20.00;99.90;;;;;;12438065;28;20046;-81
2022/08/20 08:38:35;;;;;;;11.13;7.53;;;20.20;99.90;;;;;;12435438;28;20520;-82
2022/08/20 08:44:39;;;;;;;;;;;20.30;99.90;;;;;;12458746;28;20103;-82
2022/08/20 08:50:50;;;;;;;8.02;5.30;;;20.40;99.90;;;;;;12462211;28;20215;-82
2022/08/20 08:56:54;;;;;;;6.05;5.20;;;20.50;99.90;;;;;;12458774;28;20050;-82
2022/08/20 09:03:08;;;;;;;5.65;4.80;;;20.70;99.90;;;;;;12428234;28;20529;-82
2022/08/20 09:09:23;;;;;;;7.05;4.80;;;20.90;99.90;;;;;;12434015;28;20053;-82
2022/08/20 09:15:25;;;;;;;6.03;5.07;;;21.20;99.90;;;;;;12427514;28;20046;-82
2022/08/20 09:21:29;;;;;;;6.60;4.75;;;21.20;99.90;;;;;;12427761;28;20062;-83
2022/08/20 09:27:31;;;;;;;5.85;4.22;;;21.40;99.90;;;;;;12431604;28;20062;-82
2022/08/20 09:33:33;;;;;;;6.88;5.18;;;21.20;99.90;;;;;;12440648;28;20038;-82
2022/08/20 09:39:36;;;;;;;5.32;4.25;;;20.90;99.90;;;;;;12430361;28;20125;-82
2022/08/20 09:45:38;;;;;;;9.07;5.50;;;21.00;99.90;;;;;;12441540;28;20042;-82
2022/08/20 09:51:40;;;;;;;7.97;6.32;;;20.80;99.90;;;;;;12435441;28;20057;-82
2022/08/20 09:57:42;;;;;;;10.20;7.72;;;20.70;99.90;;;;;;12446471;28;20060;-82
2022/08/20 10:03:47;;;;;;;10.23;8.10;;;20.80;99.90;;;;;;12443097;28;20413;-82
2022/08/20 10:09:49;;;;;;;9.15;7.38;;;20.70;99.90;;;;;;12441676;28;20064;-82
2022/08/20 10:15:51;;;;;;;12.23;8.60;;;20.80;99.90;;;;;;12435874;28;20096;-82
2022/08/20 10:21:53;;;;;;;12.45;9.05;;;20.70;99.90;;;;;;12436617;28;20181;-82
2022/08/20 10:27:56;;;;;;;12.10;10.40;;;21.00;99.90;;;;;;12460379;28;20501;-82
2022/08/20 10:33:58;;;;;;;14.13;10.85;;;21.20;99.90;;;;;;12479591;28;20387;-82
2022/08/20 10:40:01;;;;;;;11.18;9.27;;;21.40;99.90;;;;;;12502329;28;20045;-83
2022/08/20 10:46:03;;;;;;;;;;;21.70;99.90;;;;;;12469452;28;20069;-82
2022/08/20 10:52:05;;;;;;;11.57;10.07;;;21.70;99.90;;;;;;12472824;28;19968;-83
2022/08/20 10:58:09;;;;;;;;;;;22.00;99.90;;;;;;12466723;28;20033;-82
2022/08/20 11:04:12;;;;;;;7.55;6.45;;;22.10;99.90;;;;;;12480482;28;20369;-82
2022/08/20 11:10:14;;;;;;;8.90;5.95;;;21.90;99.90;;;;;;12472830;28;20059;-83
2022/08/20 11:16:16;;;;;;;10.23;6.45;;;22.10;99.90;;;;;;12467084;28;20037;-82
2022/08/20 11:22:18;;;;;;;7.88;5.85;;;22.70;99.90;;;;;;12482633;28;20090;-82
2022/08/20 11:28:20;;;;;;;6.72;3.53;;;22.80;99.90;;;;;;12462197;28;20053;-83
2022/08/20 11:34:32;;;;;;;8.50;5.10;;;22.70;99.90;;;;;;12474114;28;20046;-83
2022/08/20 11:40:34;;;;;;;6.78;4.50;;;22.60;99.90;;;;;;12466478;28;20193;-82
2022/08/20 11:46:36;;;;;;;7.68;4.90;;;22.60;99.90;;;;;;12484488;28;20045;-82
2022/08/20 11:52:38;;;;;;;6.80;4.45;;;22.80;99.90;;;;;;12482658;28;20056;-83
2022/08/20 11:58:41;;;;;;;6.53;3.60;;;22.40;99.90;;;;;;12456881;28;20102;-84
2022/08/20 12:04:44;;;;;;;4.93;2.58;;;23.00;99.90;;;;;;12481454;28;20045;-83
2022/08/20 12:10:46;;;;;;;7.40;2.80;;;23.60;99.90;;;;;;12471536;28;20068;-84
2022/08/20 12:16:48;;;;;;;5.15;2.53;;;23.90;99.90;;;;;;12473009;28;20052;-84
2022/08/20 12:22:52;;;;;;;5.88;2.90;;;24.20;99.90;;;;;;12492322;28;20096;-84
2022/08/20 12:28:54;;;;;;;5.28;2.42;;;24.60;99.90;;;;;;12493301;28;20061;-83
2022/08/20 12:34:57;;;;;;;7.72;2.20;;;23.90;99.90;;;;;;12464905;28;20042;-83
2022/08/20 12:41:00;;;;;;;6.47;2.28;;;23.80;99.90;;;;;;12469954;28;20064;-84
2022/08/20 12:47:24;;;;;;;4.40;1.87;;;24.20;99.90;;;;;;12457462;28;20145;-83
2022/08/20 12:53:26;;;;;;;5.60;1.75;;;24.30;99.90;;;;;;12462507;28;20046;-84
2022/08/20 12:59:28;;;;;;;5.45;1.85;;;24.10;99.90;;;;;;12489302;28;20076;-84
2022/08/20 13:05:33;;;;;;;5.35;1.73;;;24.30;99.90;;;;;;12479072;28;20069;-84
2022/08/20 13:11:35;;;;;;;3.42;1.50;;;24.90;99.90;;;;;;12471424;28;20045;-84
2022/08/20 13:17:38;;;;;;;5.45;1.60;;;24.90;99.90;;;;;;12466508;28;20096;-84
2022/08/20 13:23:40;;;;;;;7.57;1.90;;;24.20;99.90;;;;;;12469096;28;20056;-83
2022/08/20 13:29:47;;;;;;;5.85;1.75;;;23.80;99.90;;;;;;12489159;28;20417;-84
2022/08/20 13:35:49;;;;;;;4.18;1.60;;;24.40;99.90;;;;;;12493141;28;20084;-84
2022/08/20 13:41:50;;;;;;;4.20;1.52;;;24.80;99.90;;;;;;12475161;28;20037;-84
2022/08/20 13:47:54;;;;;;;5.32;1.45;;;24.90;99.90;;;;;;12488975;28;20057;-83
2022/08/20 13:53:56;;;;;;;8.05;1.70;;;25.30;99.90;;;;;;12478164;28;20160;-84
2022/08/20 13:59:58;;;;;;;4.40;1.40;;;25.20;99.90;;;;;;12484193;28;20037;-84
2022/08/20 14:06:02;;;;;;;4.03;1.77;;;25.20;99.90;;;;;;12475385;28;20167;-84
2022/08/20 14:12:04;;;;;;;;;;;25.60;99.90;;;;;;12479775;28;20140;-86
2022/08/20 14:18:06;;;;;;;6.47;1.75;;;25.20;99.90;;;;;;12473052;28;19924;-83
2022/08/20 14:24:08;;;;;;;7.87;1.60;;;24.40;99.90;;;;;;12468151;28;20053;-84
2022/08/20 14:30:14;;;;;;;6.82;1.73;;;24.00;99.90;;;;;;12468659;28;20061;-83
2022/08/20 14:36:16;;;;;;;4.55;1.70;;;23.60;99.90;;;;;;12494890;28;20045;-83
2022/08/20 14:42:21;;;;;;;5.85;1.80;;;23.50;99.90;;;;;;12466523;28;20041;-84
2022/08/20 14:48:26;;;;;;;6.32;1.58;;;23.70;99.90;;;;;;12472308;28;20052;-83
2022/08/20 14:54:28;;;;;;;6.25;1.70;;;24.00;99.90;;;;;;12487558;28;20050;-83
2022/08/20 15:00:33;;;;;;;6.97;1.65;;;23.90;99.90;;;;;;12484267;28;20488;-84
2022/08/20 15:06:35;;;;;;;7.60;1.98;;;23.60;99.90;;;;;;12468697;28;20461;-82
2022/08/20 15:12:39;;;;;;;4.80;1.90;;;23.50;99.90;;;;;;12474574;28;20079;-83
2022/08/20 15:18:44;;;;;;;6.78;1.58;;;23.30;99.90;;;;;;12484600;28;20081;-83
2022/08/20 15:24:46;;;;;;;7.15;1.90;;;23.20;99.90;;;;;;12467798;28;20033;-84
2022/08/20 15:30:48;;;;;;;7.03;2.00;;;23.00;99.90;;;;;;12473801;28;20037;-83
2022/08/20 15:36:50;;;;;;;9.00;2.15;;;22.70;99.90;;;;;;12483853;28;21306;-84
2022/08/20 15:42:54;;;;;;;8.60;2.00;;;22.70;99.90;;;;;;12467030;28;20045;-84
2022/08/20 15:48:56;;;;;;;4.07;1.52;;;22.60;99.90;;;;;;12505393;28;20030;-84
2022/08/20 15:55:01;;;;;;;8.43;1.90;;;22.60;99.90;;;;;;12490288;28;20046;-84
2022/08/20 16:01:20;;;;;;;6.57;2.15;;;22.70;99.90;;;;;;12487495;28;20049;-83
2022/08/20 16:07:31;;;;;;;6.67;1.80;;;22.70;99.90;;;;;;12485368;28;20053;-83
2022/08/20 16:13:40;;;;;;;6.88;1.55;;;22.60;99.90;;;;;;12474379;28;20042;-83
2022/08/20 16:19:45;;;;;;;5.85;1.65;;;22.60;99.90;;;;;;12468985;28;20041;-83
2022/08/20 16:25:58;;;;;;;7.03;2.25;;;22.60;99.90;;;;;;12481408;28;20042;-83
2022/08/20 16:32:31;;;;;;;7.07;1.80;;;22.60;99.90;;;;;;12467953;28;20040;-83
2022/08/20 16:38:42;;;;;;;7.47;1.80;;;22.70;99.90;;;;;;12469041;28;20064;-83
2022/08/20 16:44:49;;;;;;;9.02;1.92;;;22.60;99.90;;;;;;12471973;28;20379;-83
2022/08/20 16:50:52;;;;;;;6.90;1.88;;;22.80;99.90;;;;;;12484014;28;20060;-83
2022/08/20 16:57:00;;;;;;;5.30;1.58;;;23.00;99.90;;;;;;12502156;28;20081;-83
2022/08/20 17:03:25;;;;;;;5.80;1.60;;;23.20;99.90;;;;;;12462077;28;20076;-83
2022/08/20 17:09:42;;;;;;;6.60;1.20;;;23.30;99.90;;;;;;12488939;28;20049;-84
2022/08/20 17:16:12;;;;;;;7.28;1.75;;;23.10;99.90;;;;;;12472952;28;20583;-83
2022/08/20 17:22:18;;;;;;;6.68;1.98;;;23.20;99.90;;;;;;12483774;28;20168;-84
2022/08/20 17:28:24;;;;;;;5.30;1.67;;;23.10;99.90;;;;;;12462655;28;20058;-84
2022/08/20 17:34:30;;;;;;;4.68;1.50;;;23.20;99.90;;;;;;12480553;28;20052;-83
2022/08/20 17:40:39;;;;;;;7.03;1.98;;;23.20;99.90;;;;;;12457656;28;20069;-83
2022/08/20 17:46:45;;;;;;;5.07;1.50;;;23.20;99.90;;;;;;12461687;28;20398;-83
2022/08/20 17:53:02;;;;;;;4.95;1.40;;;23.10;99.90;;;;;;12471679;28;20037;-83
2022/08/20 17:59:30;;;;;;;5.70;1.52;;;23.00;99.90;;;;;;12477159;28;20049;-83
2022/08/20 18:06:05;;;;;;;6.47;2.15;;;22.80;99.90;;;;;;12469543;28;20105;-83
2022/08/20 18:12:17;;;;;;;5.95;1.88;;;22.50;99.90;;;;;;12492082;28;20056;-82
2022/08/20 18:19:00;;;;;;;4.82;1.50;;;22.40;99.90;;;;;;12480860;28;20056;-82
2022/08/20 18:25:35;;;;;;;6.25;1.77;;;22.30;99.90;;;;;;12499777;28;20446;-82
2022/08/20 18:31:50;;;;;;;7.28;1.85;;;22.20;99.90;;;;;;12465482;28;20050;-82
2022/08/20 18:37:53;;;;;;;9.73;1.90;;;22.10;99.90;;;;;;12494607;28;20054;-82
2022/08/20 18:44:08;;;;;;;;;;;22.10;99.90;;;;;;12485435;28;20425;-82
2022/08/20 18:50:10;;;;;;;6.57;1.75;;;22.00;99.90;;;;;;12505047;28;19925;-82
2022/08/20 18:56:30;;;;;;;6.90;1.80;;;21.90;99.90;;;;;;12465700;28;20269;-82
2022/08/20 19:02:34;;;;;;;8.98;2.13;;;21.80;99.90;;;;;;12503272;28;20405;-82
2022/08/20 19:08:44;;;;;;;7.93;1.50;;;21.60;99.90;;;;;;12485288;28;20053;-82
2022/08/20 19:14:57;;;;;;;6.95;1.60;;;21.40;99.90;;;;;;12479214;28;20619;-82
2022/08/20 19:21:02;;;;;;;9.13;1.77;;;21.20;99.90;;;;;;12481259;28;20057;-82
2022/08/20 19:27:07;;;;;;;5.25;1.50;;;21.00;99.90;;;;;;12476020;28;20401;-82
2022/08/20 19:33:09;;;;;;;7.55;1.58;;;20.90;99.90;;;;;;12469663;28;20061;-82
2022/08/20 19:39:17;;;;;;;5.18;1.60;;;20.70;99.90;;;;;;12479795;28;20417;-82
2022/08/20 19:45:31;;;;;;;6.35;1.60;;;20.60;99.90;;;;;;12485985;28;20056;-82
2022/08/20 19:51:42;;;;;;;6.28;1.70;;;20.30;99.90;;;;;;12495477;28;20119;-82
2022/08/20 19:57:51;;;;;;;7.15;1.73;;;20.30;99.90;;;;;;12474100;28;20092;-82
2022/08/20 20:03:58;;;;;;;10.25;1.85;;;20.00;99.90;;;;;;12477807;28;20088;-82
2022/08/20 20:10:01;;;;;;;6.38;1.75;;;19.90;99.90;;;;;;12481905;28;20065;-81
2022/08/20 20:16:04;;;;;;;5.90;1.83;;;19.90;99.90;;;;;;12489619;28;20057;-81
2022/08/20 20:22:13;;;;;;;4.50;1.50;;;19.80;99.90;;;;;;12483816;28;20053;-82
2022/08/20 20:28:49;;;;;;;10.40;2.05;;;19.80;99.90;;;;;;12478068;28;20110;-81
2022/08/20 20:34:55;;;;;;;7.53;1.77;;;19.80;99.90;;;;;;12486394;28;20169;-81
2022/08/20 20:40:59;;;;;;;4.90;1.55;;;19.60;99.90;;;;;;12475637;28;20052;-81
2022/08/20 20:47:04;;;;;;;8.27;1.80;;;19.50;99.90;;;;;;12481706;28;20497;-81
2022/08/20 20:53:07;;;;;;;8.50;1.95;;;19.40;99.90;;;;;;12495459;28;20041;-81
2022/08/20 20:59:09;;;;;;;8.02;2.00;;;19.30;99.90;;;;;;12490083;28;20061;-81
2022/08/20 21:05:16;;;;;;;6.97;1.52;;;19.20;99.90;;;;;;12468660;28;20505;-81
2022/08/20 21:11:18;;;;;;;4.40;1.55;;;19.00;99.90;;;;;;12475341;28;20065;-81
2022/08/20 21:17:21;;;;;;;6.70;1.87;;;19.00;99.90;;;;;;12465644;28;20050;-81
2022/08/20 21:23:23;;;;;;;3.92;1.50;;;18.90;99.90;;;;;;12472277;28;20073;-81
2022/08/20 21:29:42;;;;;;;5.78;1.75;;;18.80;99.90;;;;;;12465220;28;20058;-81
2022/08/20 21:35:44;;;;;;;7.15;1.80;;;18.90;99.90;;;;;;12478711;28;20045;-81
2022/08/20 21:41:46;;;;;;;5.60;1.60;;;18.80;99.90;;;;;;12481740;28;20056;-81
2022/08/20 21:47:50;;;;;;;7.10;1.80;;;18.70;99.90;;;;;;12465448;28;20042;-81
2022/08/20 21:53:52;;;;;;;6.45;1.63;;;18.60;99.90;;;;;;12475375;28;20049;-81
2022/08/20 21:59:56;;;;;;;7.60;1.75;;;18.40;99.90;;;;;;12472243;28;20072;-81
2022/08/20 22:05:59;;;;;;;4.40;1.35;;;18.40;99.90;;;;;;12479114;28;20053;-81
2022/08/20 22:12:01;;;;;;;7.87;1.67;;;18.30;99.90;;;;;;12476031;28;20481;-81
2022/08/20 22:18:04;;;;;;;5.22;1.70;;;18.40;99.90;;;;;;12484619;28;20565;-81
2022/08/20 22:24:08;;;;;;;8.85;1.85;;;18.30;99.90;;;;;;12479777;28;20034;-81
2022/08/20 22:30:11;;;;;;;10.05;1.63;;;18.30;99.90;;;;;;12493751;28;20088;-81
2022/08/20 22:36:13;;;;;;;6.22;1.38;;;18.30;99.90;;;;;;12488020;28;20053;-81
2022/08/20 22:42:14;;;;;;;6.20;1.70;;;18.30;99.90;;;;;;12487767;28;20046;-81
2022/08/20 22:48:18;;;;;;;4.88;1.33;;;18.20;99.90;;;;;;12475259;28;20436;-81
2022/08/20 22:54:22;;;;;;;4.72;1.48;;;18.20;99.90;;;;;;12476649;28;20037;-81
2022/08/20 23:00:24;;;;;;;6.10;1.30;;;18.10;99.90;;;;;;12475009;28;20128;-81
2022/08/20 23:06:28;;;;;;;4.70;1.30;;;18.10;99.90;;;;;;12481850;28;20094;-81
2022/08/20 23:12:30;;;;;;;5.20;1.65;;;17.90;99.90;;;;;;12480021;28;20073;-81
2022/08/20 23:18:32;;;;;;;5.00;1.70;;;17.90;99.90;;;;;;12474562;28;20046;-81
2022/08/20 23:24:35;;;;;;;6.80;1.60;;;17.80;99.90;;;;;;12491232;28;20565;-81
2022/08/20 23:30:37;;;;;;;5.00;1.45;;;17.80;99.90;;;;;;12490913;28;20046;-81
2022/08/20 23:36:39;;;;;;;5.90;1.40;;;17.80;99.90;;;;;;12479237;28;20516;-81
2022/08/20 23:42:42;;;;;;;3.90;1.30;;;17.90;99.90;;;;;;12503573;28;20154;-81
2022/08/20 23:48:44;;;;;;;5.85;1.50;;;17.80;99.90;;;;;;12480445;28;20132;-81
2022/08/20 23:54:46;;;;;;;5.57;1.80;;;17.70;99.90;;;;;;12495219;28;20179;-81
